.
WxDataArchive / Data Records for 2016-05-27
2016-05-26 May 2016 2016-05-28

Data Records for Friday, 27 May 2016

Time	Temp	Chill	HIndex	Humid	Dewpt	 Wind 	HiWind	WindDir	Rain 	Barom
-----	----	-----	------	-----	-----	------	------	-------	-----	-----
00:00	72.1	72.1	72.1	69	61.4	0	1	292	0.00	29.899 
00:05	72.0	72.0	72.0	70	61.7	0	1	292	0.00	29.899 
00:10	71.8	71.8	71.8	71	61.9	0	1	292	0.00	29.899 
00:15	71.6	71.6	71.6	71	61.7	0	1	292	0.00	29.904 
00:20	71.5	71.5	71.5	72	62.0	0	1	292	0.00	29.904 
00:25	71.3	71.3	71.3	72	61.8	0	0	---	0.00	29.904 
00:30	71.1	71.1	71.1	73	62.0	0	1	292	0.00	29.907 
00:35	71.1	71.1	71.1	73	62.0	0	0	---	0.00	29.907 
00:40	70.9	70.9	70.9	73	61.8	0	0	---	0.00	29.907 
00:45	70.6	70.6	70.6	74	61.9	0	0	---	0.00	29.901 
00:50	70.4	70.4	70.4	74	61.7	0	1	292	0.00	29.901 
00:55	70.3	70.3	70.3	75	62.0	0	0	---	0.00	29.901 
01:00	70.1	70.1	70.1	76	62.2	0	0	---	0.00	29.904 
01:05	69.9	69.9	69.9	76	62.0	0	0	---	0.00	29.904 
01:10	69.8	69.8	69.8	77	62.3	0	0	---	0.00	29.904 
01:15	69.6	69.6	69.6	77	62.1	0	0	---	0.00	29.903 
01:20	69.4	69.4	69.4	78	62.2	0	0	---	0.00	29.903 
01:25	69.3	69.3	69.3	78	62.1	0	0	---	0.00	29.903 
01:30	69.1	69.1	69.1	79	62.3	0	0	---	0.00	29.899 
01:35	68.8	68.8	68.8	79	62.0	0	0	---	0.00	29.899 
01:40	68.6	68.6	68.6	80	62.2	0	0	---	0.00	29.899 
01:45	68.4	68.4	68.4	80	62.0	0	0	---	0.00	29.892 
01:50	68.3	68.3	68.3	81	62.2	0	0	---	0.00	29.892 
01:55	67.9	67.9	67.9	81	61.8	0	0	---	0.00	29.892 
02:00	67.8	67.8	67.8	82	62.1	0	0	---	0.00	29.889 
02:05	67.6	67.6	67.6	82	61.9	0	0	---	0.00	29.889 
02:10	67.3	67.3	67.3	83	62.0	0	0	---	0.00	29.889 
02:15	67.1	67.1	67.1	83	61.8	0	0	---	0.00	29.890 
02:20	66.9	66.9	66.9	84	61.9	0	0	---	0.00	29.890 
02:25	66.8	66.8	66.8	84	61.8	0	0	---	0.00	29.890 
02:30	66.6	66.6	66.6	84	61.6	0	0	---	0.00	29.896 
02:35	66.3	66.3	66.3	85	61.6	0	0	---	0.00	29.896 
02:40	66.1	66.1	66.1	85	61.5	0	0	---	0.00	29.896 
02:45	66.0	66.0	66.0	86	61.7	0	0	---	0.00	29.901 
02:50	66.0	66.0	66.0	86	61.7	0	0	---	0.00	29.901 
02:55	65.8	65.8	65.8	86	61.5	0	0	---	0.00	29.901 
03:00	65.6	65.6	65.6	87	61.6	0	0	---	0.00	29.906 
03:05	65.5	65.5	65.5	87	61.5	0	0	---	0.00	29.906 
03:10	65.5	65.5	65.5	87	61.5	0	0	---	0.00	29.906 
03:15	65.3	65.3	65.3	87	61.3	0	0	---	0.00	29.908 
03:20	65.3	65.3	65.3	88	61.6	0	0	---	0.00	29.908 
03:25	65.2	65.2	65.2	88	61.6	0	0	---	0.00	29.908 
03:30	65.2	65.2	65.2	88	61.6	0	0	---	0.00	29.913 
03:35	65.0	65.0	65.0	88	61.4	0	0	---	0.00	29.913 
03:40	64.8	64.8	64.8	88	61.2	0	0	---	0.00	29.913 
03:45	64.8	64.8	64.8	88	61.2	0	0	---	0.00	29.912 
03:50	64.7	64.7	64.7	88	61.1	0	0	---	0.00	29.912 
03:55	64.7	64.7	64.7	88	61.1	0	0	---	0.00	29.912 
04:00	64.7	64.7	64.7	88	61.1	0	0	---	0.00	29.912 
04:05	64.8	64.8	64.8	89	61.5	0	0	---	0.00	29.912 
04:10	65.0	65.0	65.0	89	61.7	0	0	---	0.00	29.912 
04:15	65.0	65.0	65.0	89	61.7	0	0	---	0.00	29.909 
04:20	65.2	65.2	65.2	88	61.6	0	0	---	0.00	29.909 
04:25	65.2	65.2	65.2	88	61.6	0	0	---	0.00	29.909 
04:30	65.2	65.2	65.2	88	61.6	0	0	---	0.00	29.913 
04:35	65.2	65.2	65.2	88	61.6	0	0	---	0.00	29.913 
04:40	65.2	65.2	65.2	88	61.6	0	0	---	0.00	29.913 
04:45	65.2	65.2	65.2	88	61.6	0	0	---	0.00	29.911 
04:50	65.2	65.2	65.2	88	61.6	0	0	---	0.00	29.911 
04:55	65.2	65.2	65.2	88	61.6	0	0	---	0.00	29.911 
05:00	65.0	65.0	65.0	88	61.4	0	0	---	0.00	29.910 
05:05	65.0	65.0	65.0	88	61.4	0	0	---	0.00	29.910 
05:10	65.0	65.0	65.0	88	61.4	0	0	---	0.00	29.910 
05:15	64.8	64.8	64.8	88	61.2	0	0	---	0.00	29.914 
05:20	64.8	64.8	64.8	88	61.2	0	0	---	0.00	29.914 
05:25	64.7	64.7	64.7	88	61.1	0	0	---	0.00	29.914 
05:30	64.7	64.7	64.7	88	61.1	0	0	---	0.00	29.914 
05:35	64.7	64.7	64.7	88	61.1	0	0	---	0.00	29.914 
05:40	64.5	64.5	64.5	88	60.9	0	0	---	0.00	29.914 
05:45	64.5	64.5	64.5	89	61.2	0	0	---	0.00	29.910 
05:50	64.3	64.3	64.3	89	61.0	0	0	---	0.00	29.910 
05:55	64.2	64.2	64.2	89	60.9	0	0	---	0.00	29.910 
06:00	64.0	64.0	64.0	89	60.7	0	0	---	0.00	29.910 
06:05	64.0	64.0	64.0	89	60.7	0	0	---	0.00	29.910 
06:10	63.9	63.9	63.9	89	60.6	0	0	---	0.00	29.910 
06:15	63.7	63.7	63.7	90	60.7	0	0	---	0.00	29.919 
06:20	63.7	63.7	63.7	90	60.7	0	0	---	0.00	29.919 
06:25	63.7	63.7	63.7	90	60.7	0	0	---	0.00	29.919 
06:30	63.7	63.7	63.7	90	60.7	0	0	---	0.00	29.921 
06:35	63.7	63.7	63.7	90	60.7	0	0	---	0.00	29.921 
06:40	63.7	63.7	63.7	90	60.7	0	0	---	0.00	29.921 
06:45	63.7	63.7	63.7	91	61.0	0	0	---	0.00	29.922 
06:50	63.7	63.7	63.7	91	61.0	0	0	---	0.00	29.922 
06:55	63.9	63.9	63.9	91	61.2	0	0	---	0.00	29.922 
07:00	63.9	63.9	63.9	91	61.2	0	0	---	0.00	29.927 
07:05	64.0	64.0	64.0	91	61.3	0	0	---	0.00	29.927 
07:10	64.0	64.0	64.0	91	61.3	0	0	---	0.00	29.927 
07:15	64.2	64.2	64.2	91	61.5	0	1	292	0.00	29.926 
07:20	64.3	64.3	64.3	91	61.6	0	0	---	0.00	29.926 
07:25	64.3	64.3	64.3	91	61.6	0	0	---	0.00	29.926 
07:30	64.5	64.5	64.5	91	61.8	0	0	---	0.00	29.924 
07:35	64.8	64.8	64.8	90	61.8	0	0	---	0.00	29.924 
07:40	65.2	65.2	65.2	90	62.2	0	0	---	0.00	29.924 
07:45	65.8	65.8	65.8	89	62.5	0	2	292	0.00	29.925 
07:50	66.3	66.3	66.3	88	62.6	0	1	292	0.00	29.925 
07:55	66.9	66.9	66.9	86	62.6	0	1	292	0.00	29.925 
08:00	67.4	67.4	67.4	84	62.4	0	1	292	0.00	29.931 
08:05	67.9	67.9	67.9	84	62.9	0	1	292	0.00	29.931 
08:10	68.6	68.6	68.6	82	62.9	0	1	292	0.00	29.931 
08:15	69.1	69.1	69.1	81	63.0	0	0	---	0.00	29.927 
08:20	69.8	69.8	69.8	79	63.0	0	1	292	0.00	29.927 
08:25	70.6	70.6	70.6	78	63.4	0	1	292	0.00	29.927 
08:30	71.1	71.1	71.1	76	63.1	0	1	292	0.00	29.924 
08:35	71.5	71.5	71.5	75	63.1	0	2	292	0.00	29.924 
08:40	71.6	71.6	71.6	74	62.9	0	2	292	0.00	29.924 
08:45	71.5	71.5	71.5	74	62.8	0	0	---	0.00	29.932 
08:50	71.5	71.5	71.5	75	63.1	0	1	292	0.00	29.932 
08:55	71.3	71.3	71.3	74	62.6	0	1	292	0.00	29.932 
09:00	71.1	71.1	71.1	75	62.8	0	2	292	0.00	29.932 
09:05	71.3	71.3	71.3	75	63.0	0	0	---	0.00	29.932 
09:10	71.5	71.5	71.5	74	62.8	0	1	292	0.00	29.932 
09:15	71.6	71.6	71.6	74	62.9	0	1	292	0.00	29.934 
09:20	71.8	71.8	71.8	73	62.7	0	2	292	0.00	29.934 
09:25	72.1	72.1	72.1	73	63.0	0	1	292	0.00	29.934 
09:30	72.5	72.5	72.5	73	63.3	0	1	292	0.00	29.931 
09:35	72.7	72.7	72.7	73	63.5	0	0	---	0.00	29.931 
09:40	73.0	73.0	73.0	72	63.4	0	0	---	0.00	29.931 
09:45	73.0	73.0	73.0	71	63.0	0	1	292	0.00	29.932 
09:50	73.0	73.0	73.0	71	63.0	0	1	292	0.00	29.932 
09:55	73.0	73.0	73.0	71	63.0	0	1	292	0.00	29.932 
10:00	73.0	73.0	73.0	72	63.4	0	0	---	0.00	29.934 
10:05	73.3	73.3	73.3	71	63.3	0	2	292	0.00	29.934 
10:10	73.9	73.9	73.9	71	63.9	0	1	292	0.00	29.934 
10:15	74.4	74.4	74.4	70	64.0	0	1	292	0.00	29.932 
10:20	74.9	74.9	74.9	69	64.0	0	1	292	0.00	29.932 
10:25	75.1	75.1	77.0	67	63.4	0	2	292	0.00	29.932 
10:30	75.1	75.1	76.9	68	63.8	0	1	292	0.00	29.931 
10:35	75.1	75.1	76.9	68	63.8	0	2	292	0.00	29.931 
10:40	75.3	75.3	77.1	68	64.0	0	1	292	0.00	29.931 
10:45	75.4	75.4	77.2	68	64.1	0	3	315	0.00	29.932 
10:50	75.8	75.8	77.7	66	63.6	0	2	315	0.00	29.932 
10:55	76.0	76.0	77.8	66	63.8	0	1	315	0.00	29.932 
11:00	76.0	76.0	77.8	66	63.8	0	1	315	0.00	29.930 
11:05	76.1	76.1	77.9	66	63.9	0	2	315	0.00	29.930 
11:10	76.3	76.3	78.1	65	63.6	0	1	315	0.00	29.930 
11:15	76.5	76.5	78.3	66	64.3	0	0	---	0.00	29.931 
11:20	76.5	76.5	78.3	65	63.8	0	1	315	0.00	29.931 
11:25	76.3	76.3	78.2	64	63.2	0	1	315	0.00	29.931 
11:30	76.0	76.0	77.9	65	63.4	0	1	315	0.00	29.934 
11:35	75.8	75.8	77.7	65	63.2	0	1	315	0.00	29.934 
11:40	75.6	75.6	77.5	65	63.0	0	0	---	0.00	29.934 
11:45	75.4	75.4	77.3	66	63.2	0	0	---	0.00	29.935 
11:50	75.3	75.3	77.2	66	63.1	0	0	---	0.00	29.935 
11:55	75.1	75.1	77.1	66	62.9	0	0	---	0.00	29.935 
12:00	74.9	74.9	74.9	67	63.2	0	0	---	0.00	29.944 
12:05	74.6	74.6	74.6	67	62.9	0	1	315	0.00	29.944 
12:10	74.6	74.6	74.6	68	63.3	0	0	---	0.00	29.944 
12:15	74.6	74.6	74.6	69	63.7	0	0	---	0.00	29.946 
12:20	74.6	74.6	74.6	69	63.7	0	0	---	0.00	29.946 
12:25	74.7	74.7	74.7	69	63.8	0	0	---	0.00	29.946 
12:30	75.1	75.1	76.9	69	64.2	0	0	---	0.00	29.948 
12:35	75.6	75.6	77.4	68	64.3	0	1	315	0.00	29.948 
12:40	76.0	76.0	77.8	67	64.2	0	2	315	0.00	29.948 
12:45	76.5	76.5	78.3	66	64.3	0	2	292	0.00	29.946 
12:50	77.2	77.2	79.0	69	66.2	0	2	292	0.00	29.946 
12:55	77.7	77.7	79.5	63	64.1	0	3	315	0.00	29.946 
13:00	78.1	78.1	79.9	62	64.0	0	1	315	0.00	29.947 
13:05	78.3	78.3	80.1	63	64.6	0	2	315	0.00	29.947 
13:10	78.5	78.5	80.3	62	64.4	0	2	315	0.00	29.947 
13:15	78.5	78.5	80.3	62	64.4	0	1	315	0.00	29.948 
13:20	78.8	78.8	80.6	62	64.7	0	1	315	0.00	29.948 
13:25	79.4	79.4	81.3	62	65.2	0	1	315	0.00	29.948 
13:30	79.9	79.9	81.9	62	65.7	0	1	315	0.00	29.943 
13:35	80.5	80.5	82.4	60	65.3	0	1	315	0.00	29.943 
13:40	81.1	81.1	82.9	58	64.9	0	3	315	0.00	29.943 
13:45	81.4	81.4	83.3	58	65.2	1	3	90	0.00	29.932 
13:50	81.4	----	83.3	58	65.2	---	0	---	0.00	29.932 
13:55	81.4	----	83.3	58	65.2	---	0	---	0.00	29.932 
14:00	----	----	----	---	----	---	0	---	0.00	29.929 
14:05	83.2	----	----	---	----	---	0	270	0.00	29.929 
14:10	83.2	----	----	---	----	---	0	---	0.00	29.929 
14:15	83.2	----	----	---	----	---	0	---	0.00	29.920 
14:20	83.2	----	----	---	----	---	0	---	0.00	29.920 
14:25	----	----	----	---	----	---	0	---	0.00	29.920 
14:30	----	----	----	---	----	---	0	---	0.00	29.929 
14:35	----	----	----	---	----	---	0	---	0.00	29.929 
14:40	----	----	----	---	----	---	0	---	0.00	29.929 
14:45	----	----	----	---	----	---	0	---	0.00	29.921 
14:50	----	----	----	---	----	---	0	---	0.00	29.921 
14:55	----	----	----	---	----	---	0	---	0.00	29.921 
15:00	----	----	----	---	----	---	0	---	0.00	29.920 
15:05	----	----	----	---	----	---	0	---	0.00	29.920 
15:10	----	----	----	---	----	---	0	---	0.00	29.920 
15:15	----	----	----	---	----	---	0	---	0.00	29.917 
15:20	----	----	----	---	----	---	0	---	0.00	29.917 
15:25	----	----	----	---	----	---	0	---	0.00	29.917 
15:30	----	----	----	---	----	---	0	---	0.00	29.916 
15:35	----	----	----	---	----	---	0	---	0.00	29.916 
15:40	----	----	----	---	----	---	0	---	0.00	29.916 
15:45	----	----	----	---	----	---	0	---	0.00	29.909 
15:50	----	----	----	---	----	---	0	---	0.00	29.909 
15:55	----	----	----	---	----	---	0	---	0.00	29.909 
16:00	----	----	----	---	----	---	0	---	0.00	29.903 
16:05	----	----	----	---	----	---	0	---	0.00	29.903 
16:10	----	----	----	---	----	---	0	---	0.00	29.903 
16:15	----	----	----	---	----	---	0	---	0.00	29.902 
16:20	----	----	----	---	----	---	0	---	0.00	29.902 
16:25	----	----	----	---	----	---	0	---	0.00	29.902 
16:30	----	----	----	---	----	---	0	---	0.00	29.900 
16:35	----	----	----	---	----	---	0	---	0.00	29.900 
16:40	----	----	----	---	----	---	0	---	0.00	29.900 
16:45	----	----	----	---	----	---	0	---	0.00	29.889 
16:50	----	----	----	---	----	---	0	---	0.00	29.889 
16:55	----	----	----	---	----	---	0	---	0.00	29.889 
17:00	----	----	----	---	----	---	0	---	0.00	29.889 
17:05	----	----	----	---	----	---	0	---	0.00	29.889 
17:10	----	----	----	---	----	---	0	---	0.00	29.889 
17:15	----	----	----	---	----	---	0	---	0.00	29.889 
17:20	----	----	----	---	----	---	0	---	0.00	29.889 
17:25	----	----	----	---	----	---	0	---	0.00	29.889 
17:30	----	----	----	---	----	---	0	---	0.00	29.887 
17:35	----	----	----	---	----	---	0	---	0.00	29.887 
17:40	----	----	----	---	----	---	0	---	0.00	29.887 
17:45	----	----	----	---	----	---	0	---	0.00	29.884 
17:50	----	----	----	---	----	---	0	---	0.00	29.884 
17:55	----	----	----	---	----	---	0	---	0.00	29.884 
18:00	----	----	----	---	----	---	0	---	0.00	29.877 
18:05	----	----	----	---	----	---	0	---	0.00	29.877 
18:10	----	----	----	---	----	---	0	---	0.00	29.877 
18:15	----	----	----	---	----	---	0	---	0.00	29.871 
18:20	----	----	----	---	----	---	0	---	0.00	29.871 
18:25	----	----	----	---	----	---	0	---	0.00	29.871 
18:30	85.3	85.3	85.0	42	59.6	0	1	135	0.00	29.853 
18:35	85.1	85.1	85.0	43	60.1	0	2	135	0.00	29.853 
18:40	84.9	84.9	84.6	42	59.2	1	5	135	0.00	29.853 
18:45	85.1	85.1	85.0	43	60.1	1	4	90	0.00	29.848 
18:50	85.1	85.1	84.8	42	59.4	0	1	90	0.00	29.848 
18:55	85.3	85.3	84.8	41	58.9	0	3	68	0.00	29.848 
19:00	85.5	85.5	85.1	41	59.1	0	2	68	0.00	29.851 
19:05	85.7	85.7	85.1	40	58.6	0	3	90	0.00	29.851 
19:10	85.7	85.7	85.1	40	58.6	0	1	248	0.00	29.851 
19:15	85.7	85.7	85.1	40	58.6	1	4	270	0.00	29.846 
19:20	85.7	85.7	84.9	39	57.9	0	3	68	0.00	29.846 
19:25	85.5	85.5	84.7	39	57.7	0	3	90	0.00	29.846 
19:30	85.3	85.3	84.3	38	56.8	0	5	90	0.00	29.848 
19:35	85.1	85.1	84.3	39	57.3	1	4	90	0.00	29.848 
19:40	84.9	84.9	84.0	39	57.1	0	4	90	0.00	29.848 
19:45	84.7	84.7	84.0	40	57.7	0	2	90	0.00	29.848 
19:50	84.5	84.5	83.6	39	56.8	1	5	90	0.00	29.848 
19:55	84.3	84.3	83.6	40	57.3	0	1	90	0.00	29.848 
20:00	84.1	84.1	83.4	40	57.1	0	2	90	0.00	29.854 
20:05	84.0	84.0	83.3	40	57.0	0	2	90	0.00	29.854 
20:10	83.8	83.8	82.9	39	56.2	0	2	90	0.00	29.854 
20:15	83.6	83.6	82.8	39	56.0	0	1	90	0.00	29.853 
20:20	83.4	83.4	82.6	39	55.8	0	1	90	0.00	29.853 
20:25	83.2	83.2	82.5	40	56.3	0	1	90	0.00	29.853 
20:30	82.8	82.8	82.2	40	56.0	0	2	90	0.00	29.860 
20:35	82.6	82.6	82.0	40	55.8	0	2	90	0.00	29.860 
20:40	82.4	82.4	81.9	41	56.3	0	1	90	0.00	29.860 
20:45	82.2	82.2	81.9	42	56.8	0	1	90	0.00	29.866 
20:50	82.0	82.0	81.7	42	56.6	0	1	90	0.00	29.866 
20:55	81.6	81.6	81.5	43	56.9	0	1	90	0.00	29.866 
21:00	81.4	81.4	81.4	44	57.4	0	1	90	0.00	29.867 
21:05	81.1	81.1	81.1	44	57.1	0	2	90	0.00	29.867 
21:10	80.9	80.9	81.0	44	56.9	0	1	90	0.00	29.867 
21:15	80.7	80.7	80.9	45	57.4	0	1	90	0.00	29.867 
21:20	80.7	80.7	80.9	45	57.4	0	1	90	0.00	29.867 
21:25	80.5	80.5	80.7	45	57.2	0	2	90	0.00	29.867 
21:30	80.3	80.3	80.7	46	57.6	0	2	90	0.00	29.873 
21:35	80.1	80.1	80.5	46	57.4	0	1	90	0.00	29.873 
21:40	80.1	80.1	80.5	46	57.4	0	1	90	0.00	29.873 
21:45	79.9	79.9	80.4	47	57.8	0	1	90	0.00	29.880 
21:50	79.8	79.8	80.4	47	57.8	0	2	90	0.00	29.880 
21:55	79.6	79.6	80.2	47	57.6	0	1	90	0.00	29.880 
22:00	79.4	79.4	80.1	48	58.0	0	1	90	0.00	29.883 
22:05	79.4	79.4	80.1	48	58.0	0	2	90	0.00	29.883 
22:10	79.2	79.2	80.1	49	58.4	0	1	90	0.00	29.883 
22:15	79.0	79.0	79.9	49	58.2	0	1	90	0.00	29.883 
22:20	78.8	78.8	79.7	49	58.0	0	2	90	0.00	29.883 
22:25	78.8	78.8	79.8	50	58.6	0	3	90	0.00	29.883 
22:30	78.6	78.6	79.7	50	58.4	0	2	90	0.00	29.895 
22:35	78.6	78.6	79.7	51	58.9	0	2	90	0.00	29.895 
22:40	78.5	78.5	79.6	51	58.8	0	2	90	0.00	29.895 
22:45	78.3	78.3	79.6	52	59.2	0	1	90	0.00	29.900 
22:50	78.1	78.1	79.4	52	59.0	0	1	90	0.00	29.900 
22:55	77.9	77.9	79.3	53	59.4	0	1	90	0.00	29.900 
23:00	77.9	77.9	79.3	53	59.4	0	1	90	0.00	29.905 
23:05	77.6	77.6	79.1	54	59.6	0	1	90	0.00	29.905 
23:10	77.4	77.4	79.0	54	59.4	0	1	90	0.00	29.905 
23:15	77.2	77.2	78.9	55	59.8	0	1	90	0.00	29.910 
23:20	77.0	77.0	78.7	55	59.6	0	1	90	0.00	29.910 
23:25	76.7	76.7	78.5	56	59.8	0	0	---	0.00	29.910 
23:30	76.5	76.5	78.4	56	59.6	0	1	90	0.00	29.914 
23:35	76.3	76.3	78.3	57	59.9	0	0	---	0.00	29.914 
23:40	76.1	76.1	78.1	57	59.7	0	1	90	0.00	29.914 
23:45	76.1	76.1	78.1	57	59.7	0	1	90	0.00	29.916 
23:50	76.0	76.0	78.0	58	60.1	0	1	90	0.00	29.916 
23:55	76.0	76.0	78.0	58	60.1	0	0	---	0.00	29.916 

CoCoRaHS
IN-AL-39
A2 Web Hosting
Creative Commons License
GoDaddy
search engine by freefind advanced

loaded 2018-11-22 06:06:22 • last modified 2010-11-18 10:43:29
Privacy PolicyDisclaimer
• wx.awcolley.com is powered by PmWiki v.2002016 •
• all content (unless otherwise noted) © 2018 A W Colley